AirNav   Air Wisconsin pilot careers
 
 1251 users online  

41A Reeves Airport
Tallassee, Alabama, USA

GOING TO TALLASSEE?


FAA INFORMATION EFFECTIVE 29 MARCH 2018

Location

FAA Identifier: 41A
Lat/Long: 32-30-53.8000N / 085-52-34.3000W
32-30.896667N / 085-52.571667W
32.5149444 / -85.8761944
(estimated)
Elevation: 326 ft. / 99.4 m (surveyed)
Variation: 02W (1995)
From city: 2 miles SE of TALLASSEE, AL
Time zone: UTC -5 (UTC -6 during Standard Time)
Zip code: 36078

Airport Operations

Airport use: Open to the public
Activation date: 04/1996
Control tower: no
ARTCC: ATLANTA CENTER
FSS: ANNISTON FLIGHT SERVICE STATION
NOTAMs facility: ANB (NOTAM-D service available)
Attendance: UNATNDD
Wind indicator: lighted
Segmented circle: no
Beacon: white-green (lighted land airport)
Operates sunset to sunrise.

Airport Communications

CTAF: 122.9

Nearby radio navigation aids

VOR radial/distance  VOR name  Freq  Var
TGEr278/10.6TUSKEGEE VOR/DME117.3002E
MGMr049/28.5MONTGOMERY VORTAC112.1003E

Airport Services

Airframe service: NONE

Runway Information

Runway 13/31

Dimensions: 3207 x 75 ft. / 977 x 23 m
Surface: asphalt, in poor condition
CRACKING WITH VEGETATION VISIBLE ON RWY. SECTION OF ASPHALT MISSING RIGHT SIDE OF RWY 13.
Runway edge lights: medium intensity
Runway edge markings: RUNWAY MARKINGS FADED
RUNWAY 13  RUNWAY 31
Latitude: 32-31.074193N32-30.717660N
Longitude: 085-52.801500W085-52.340203W
Elevation: 320.0 ft.326.0 ft.
Traffic pattern: leftleft
Runway heading: 134 magnetic, 132 true314 magnetic, 312 true
Markings: NSTD, in poor conditionNSTD, in poor condition
Obstructions: 16 ft. trees, 387 ft. from runway, 142 ft. right of centerline, 11:1 slope to clear53 ft. tree, 1470 ft. from runway, 99 ft. left of centerline, 23:1 slope to clear

Airport Ownership and Management from official FAA records

Ownership: Publicly-owned
Owner: CITY OF TALLASSEE
3 FREEMAN AVENUE
TALLASSEE, AL 36078
Phone 334-283-6571
Manager: JOHNNY HAMMOCK, MAYOR
CITY OF TALLASSEE, 3 FREEMAN AVE
TALLASSEE, AL 36078
Phone 334-283-6571

Airport Operational Statistics

Aircraft based on the field: 4
Single engine airplanes: 3
Multi engine airplanes: 1
    
Aircraft operations: avg 88/week *
76% transient general aviation
24% local general aviation
* for 12-month period ending 23 June 2017

Instrument Procedures

There are no published instrument procedures at 41A.

Some nearby airports with instrument procedures:

06A - Moton Field Municipal Airport (10 nm E)
08A - Wetumpka Municipal Airport (23 nm W)
KAUO - Auburn University Regional Airport (23 nm E)
KALX - Thomas C Russell Field Airport (24 nm N)
KMXF - Maxwell Air Force Base (26 nm W)
 
Loc | Ops | Rwys | IFR | FBO | Links
Com | Nav | Svcs | Stats | Notes

AirNav Hotels Sweepstakes
 
Area around 41A (Reeves Airport)
 
Road maps at: MapQuest Bing Google
 
Aerial photo
WARNING: Photo may not be current or correct
Aerial photo of 41A (Reeves Airport)
Photo by Don Neuberg, Outwardbound Photography
Photo taken 13-Jan-2012
looking northwest.

Do you have a better or more recent aerial photo of Reeves Airport that you would like to share? If so, please send us your photo.

 
Sectional chart

 
Airport distance calculator
Flying to Reeves Airport? Find the distance to fly.

From to 41A

Sunrise and sunset
Times for 19-Apr-2018
 Local
(UTC-5)
 Zulu
(UTC)
Morning civil twilight05:4510:45
Sunrise06:1011:10
Sunset19:1500:15
Evening civil twilight19:4000:40

Current date and time
Zulu (UTC)  19-Apr-2018 22:06:31
Local (UTC-5)  19-Apr-2018 17:06:31
 
METAR
KAUO 
24nm E 
192156Z AUTO 30011G16KT 270V340 10SM CLR 21/06 A3010 RMK AO2 SLP210 T02110056
KALX 
25nm N 
192155Z AUTO 36009G15KT 10SM CLR 19/08 A3012 RMK AO2 T01860081
KMXF 
26nm W 
192156Z AUTO 34011KT 10SM CLR 20/04 A3010 RMK AO2 SLP195 T02030043 $
KMGM 
30nm SW 
192153Z 31013G17KT 10SM CLR 22/06 A3011 RMK AO2 SLP194 T02220056
K1A9 
33nm W 
192155Z AUTO 32008KT 10SM CLR 21/06 A3011 RMK AO2 T02080056
KTOI 
41nm S 
192153Z AUTO 30010G16KT 10SM CLR 23/06 A3010 RMK AO2 SLP187 T02280061
KSCD 
45nm NW 
192155Z AUTO 04010G14KT 10SM CLR 17/06 A3016 RMK AO2 T01720060
KLSF 
46nm E 
192156Z AUTO 28012G19KT 10SM CLR 24/05 A3005 RMK AO2 SLP180 T02440047
KCSG 
47nm E 
192151Z 35009G19KT 10SM CLR 24/04 A3006 RMK AO2 SLP174 T02440044
TAF
KMXF 
26nm W 
191900Z 1919/2101 33010G15KT 9999 SKC QNH3010INS BECMG 2001/2002 VRB06KT 9999 SKC QNH3018INS BECMG 2014/2015 07012G18KT 9999 SKC QNH3030INS BECMG 2022/2023 08009KT 9999 SKC QNH3026INS TX22/1920Z TN07/2011Z LAST NO AMDS AFT 2003 NEXT 2011
KMGM 
30nm SW 
191726Z 1918/2018 31012G20KT P6SM SCT050 FM200400 36008KT P6SM SKC FM201500 08014KT P6SM SKC
NOTAMs
Click for the latest NOTAMs
NOTAMs are issued by the DoD/FAA and will open in a separate window not controlled by AirNav.

 

 
 

Would you like to see your business listed on this page?

 If your business provides an interesting product or service to pilots, flight crews, aircraft, or users of the Reeves Airport, you should consider listing it here.  To start the listing process, click on the button below
 
Add a business
 

Other Pages about Reeves Airport

Update a link
 
Copyright © AirNav, LLC. All rights reserved. Privacy Policy  Contact